Time;durP1;ratioP1;P1;durP2;ratioP2;P2;SDS_P1;SDS_P2;PMS_P1;PMS_P2;Temp;Humidity;BMP_temperature;BMP_pressure;BME280_temperature;BME280_humidity;BME280_pressure;Samples;Min_cycle;Max_cycle;Signal;HPM_P1;HPM_P2
2022/12/19 00:01:50;;;;;;;217.40;77.00;;;;;;;-13.74;89.65;101197.48;4264137;82;21067;-89
2022/12/19 00:07:54;;;;;;;249.70;88.37;;;;;;;-13.84;90.20;101203.91;4286823;82;21035;-89
2022/12/19 00:13:56;;;;;;;230.63;77.20;;;;;;;-13.93;89.33;101191.71;4273292;81;21055;-88
2022/12/19 00:19:58;;;;;;;263.50;91.27;;;;;;;-14.05;89.01;101200.45;4274608;81;21012;-89
2022/12/19 00:26:12;;;;;;;261.17;89.23;;;;;;;-13.93;89.77;101190.39;4289096;81;21091;-89
2022/12/19 00:32:24;;;;;;;222.98;77.37;;;;;;;-13.97;89.25;101182.52;4294232;81;21550;-88
2022/12/19 00:38:25;;;;;;;194.77;67.53;;;;;;;-14.04;89.63;101181.02;4280840;82;21077;-91
2022/12/19 00:44:27;;;;;;;211.03;70.10;;;;;;;-14.11;88.97;101187.12;4287664;82;21062;-90
2022/12/19 00:50:28;;;;;;;239.43;86.30;;;;;;;-14.12;89.20;101184.97;4284858;82;21571;-89
2022/12/19 00:56:38;;;;;;;224.93;74.83;;;;;;;-14.12;89.11;101174.95;4365279;79;20992;-88
2022/12/19 01:02:48;;;;;;;196.23;62.13;;;;;;;-14.10;89.61;101172.95;4369717;79;21034;-88
2022/12/19 01:08:49;;;;;;;184.60;59.77;;;;;;;-14.05;89.13;101152.23;4366248;79;21035;-88
2022/12/19 01:14:53;;;;;;;165.50;53.00;;;;;;;-13.83;90.73;101141.87;4365942;80;20955;-87
2022/12/19 01:21:02;;;;;;;126.43;45.20;;;;;;;-13.88;89.54;101134.12;4257979;82;21026;-86
2022/12/19 01:27:03;;;;;;;140.47;47.73;;;;;;;-13.93;89.52;101127.22;4343721;80;21916;-86
2022/12/19 01:33:13;;;;;;;138.00;47.70;;;;;;;-13.87;90.29;101108.95;4335179;80;21044;-88
2022/12/19 01:39:15;;;;;;;145.23;50.00;;;;;;;-13.61;91.01;101106.94;4358196;79;20975;-87
2022/12/19 01:45:28;;;;;;;162.07;51.17;;;;;;;-13.47;91.02;101101.45;4281126;81;21035;-87
2022/12/19 01:51:43;;;;;;;157.63;55.63;;;;;;;-13.42;90.59;101092.04;4277806;81;21558;-87
2022/12/19 01:57:46;;;;;;;171.70;55.30;;;;;;;-13.50;89.83;101076.26;4275757;81;21027;-87
2022/12/19 02:03:49;;;;;;;192.93;65.70;;;;;;;-13.57;89.94;101075.80;4301653;80;21030;-87
2022/12/19 02:09:56;;;;;;;194.15;63.68;;;;;;;-13.53;90.69;101073.97;4279091;81;21070;-88
2022/12/19 02:16:13;;;;;;;133.20;47.17;;;;;;;-13.58;90.02;101064.45;4248349;82;21039;-87
2022/12/19 02:22:29;;;;;;;137.47;47.20;;;;;;;-13.66;90.10;101053.12;4246390;82;21074;-87
2022/12/19 02:29:02;;;;;;;130.30;44.93;;;;;;;-13.57;90.24;101046.34;4243015;82;21052;-86
2022/12/19 02:35:26;;;;;;;133.70;43.73;;;;;;;-13.53;89.95;101042.36;4288864;80;21049;-87
2022/12/19 02:41:49;;;;;;;132.20;44.10;;;;;;;-13.72;89.51;101037.52;4286746;80;21622;-88
2022/12/19 02:47:52;;;;;;;114.87;39.33;;;;;;;-13.65;89.87;101024.46;4288193;81;21070;-87
2022/12/19 02:53:55;;;;;;;138.53;46.67;;;;;;;-13.48;90.66;101017.64;4280972;81;21100;-88
2022/12/19 03:00:11;;;;;;;142.77;49.03;;;;;;;-13.42;90.35;101002.98;4288428;80;21054;-89
2022/12/19 03:06:46;;;;;;;129.60;44.73;;;;;;;-13.23;91.93;100999.40;4280040;81;21062;-88
2022/12/19 03:12:56;;;;;;;124.17;46.37;;;;;;;-13.07;91.56;101009.54;4292609;81;20999;-87
2022/12/19 03:18:58;;;;;;;142.80;47.27;;;;;;;-12.98;91.41;101003.18;4291614;81;21050;-90
2022/12/19 03:25:00;;;;;;;127.13;45.53;;;;;;;-13.06;90.78;100994.87;4287553;80;21041;-87
2022/12/19 03:31:04;;;;;;;164.30;53.43;;;;;;;-12.97;91.48;100989.82;4292122;81;21943;-89
2022/12/19 03:37:09;;;;;;;270.43;88.17;;;;;;;-12.97;91.06;101017.99;4302552;80;21542;-89
2022/12/19 03:43:12;;;;;;;242.87;86.93;;;;;;;-13.04;90.76;101034.23;4288799;81;21031;-89
2022/12/19 03:49:14;;;;;;;284.23;92.30;;;;;;;-12.99;90.97;101028.72;4290979;81;21050;-88
2022/12/19 03:55:27;;;;;;;281.37;89.77;;;;;;;-13.19;89.94;101047.32;4288585;81;21080;-87
2022/12/19 04:01:32;;;;;;;281.47;94.60;;;;;;;-13.21;90.01;101037.44;4290810;81;20979;-86
2022/12/19 04:07:36;;;;;;;286.37;93.13;;;;;;;-13.36;89.39;101035.22;4293511;81;20982;-87
2022/12/19 04:13:45;;;;;;;263.83;88.00;;;;;;;-13.35;89.93;101033.73;4296015;81;20987;-87
2022/12/19 04:20:01;;;;;;;274.13;93.10;;;;;;;-13.48;88.99;101020.80;4291082;81;20950;-87
2022/12/19 04:26:06;;;;;;;248.80;81.83;;;;;;;-13.70;88.93;101007.06;4286298;81;21035;-88
2022/12/19 04:32:08;;;;;;;245.00;81.63;;;;;;;-13.86;88.91;100998.72;4312382;79;21042;-87
2022/12/19 04:38:10;;;;;;;241.67;79.07;;;;;;;-13.69;90.09;100994.20;4267586;80;21046;-86
2022/12/19 04:44:11;;;;;;;219.67;73.13;;;;;;;-13.68;89.74;100980.87;4277593;81;20968;-87
2022/12/19 04:50:13;;;;;;;187.97;65.63;;;;;;;-13.65;89.94;100970.47;4281940;80;20972;-86
2022/12/19 04:56:15;;;;;;;184.57;62.17;;;;;;;-13.59;90.21;100969.81;4275831;81;20968;-87
2022/12/19 05:02:16;;;;;;;161.60;54.97;;;;;;;-13.55;90.00;100975.05;4280298;81;20986;-88
2022/12/19 05:08:18;;;;;;;180.67;55.60;;;;;;;-13.47;90.45;100975.02;4286335;80;21093;-88
2022/12/19 05:14:20;;;;;;;163.73;57.93;;;;;;;-13.42;90.24;100976.11;4275072;81;21063;-89
2022/12/19 05:20:21;;;;;;;134.80;48.07;;;;;;;-13.40;90.09;100964.91;4284570;81;21483;-88
2022/12/19 05:26:23;;;;;;;131.63;46.10;;;;;;;-13.59;88.89;100963.23;4264082;81;21035;-88
2022/12/19 05:32:24;;;;;;;137.47;47.60;;;;;;;-13.65;89.47;100953.35;4257144;82;21004;-89
2022/12/19 05:38:26;;;;;;;123.47;43.33;;;;;;;-13.79;89.16;100954.91;4254049;82;20984;-90
2022/12/19 05:44:28;;;;;;;132.60;47.90;;;;;;;-14.09;88.64;100954.88;4257890;82;20990;-89
2022/12/19 05:50:29;;;;;;;161.60;52.63;;;;;;;-13.99;90.19;100953.68;4260612;82;21041;-88
2022/12/19 05:56:33;;;;;;;155.03;52.67;;;;;;;-13.80;90.94;100951.13;4259916;82;20984;-89
2022/12/19 06:02:34;;;;;;;149.97;50.30;;;;;;;-13.72;91.00;100944.52;4261677;82;20984;-87
2022/12/19 06:08:36;;;;;;;140.90;44.50;;;;;;;-13.76;90.94;100950.62;4265609;82;21005;-88
2022/12/19 06:14:37;;;;;;;137.33;47.03;;;;;;;-13.78;90.18;100938.11;4264179;82;21022;-88
2022/12/19 06:20:39;;;;;;;139.43;46.27;;;;;;;-13.72;90.16;100949.78;4261637;82;21081;-88
2022/12/19 06:26:41;;;;;;;116.27;40.33;;;;;;;-13.92;89.17;100938.03;4261341;82;21059;-87
2022/12/19 06:32:45;;;;;;;108.83;38.20;;;;;;;-13.88;90.29;100920.89;4266762;80;21563;-88
2022/12/19 06:38:48;;;;;;;113.42;37.08;;;;;;;-13.87;90.89;100918.09;4266438;82;21003;-88
2022/12/19 06:44:52;;;;;;;114.37;39.83;;;;;;;-13.89;90.96;100907.41;4265327;82;21481;-88
2022/12/19 06:50:59;;;;;;;133.87;38.60;;;;;;;-13.82;91.51;100922.34;4263872;82;21062;-88
2022/12/19 06:57:00;;;;;;;121.13;37.33;;;;;;;-13.67;92.11;100926.39;4258384;82;21035;-88
2022/12/19 07:03:05;;;;;;;101.30;36.23;;;;;;;-13.52;91.50;100942.61;4257644;82;21041;-89
2022/12/19 07:09:09;;;;;;;107.00;34.27;;;;;;;-13.40;91.40;100935.94;4258985;82;21066;-88
2022/12/19 07:15:11;;;;;;;107.87;38.33;;;;;;;-13.22;91.23;100951.47;4261765;82;21083;-86
2022/12/19 07:21:14;;;;;;;103.00;34.20;;;;;;;-13.24;90.66;100933.69;4261879;82;21053;-88
2022/12/19 07:27:16;;;;;;;199.50;72.13;;;;;;;-13.32;89.70;100934.57;4305352;79;119346;-88
2022/12/19 07:33:18;;;;;;;256.07;88.73;;;;;;;-13.33;89.77;100933.43;4179515;83;21014;-87
2022/12/19 07:39:24;;;;;;;258.47;89.97;;;;;;;-13.29;89.91;100935.54;4177289;83;21551;-88
2022/12/19 07:45:28;;;;;;;252.73;86.97;;;;;;;-13.08;90.33;100941.98;4180233;83;21591;-87
2022/12/19 07:51:32;;;;;;;225.20;76.33;;;;;;;-12.99;89.72;100931.17;4176467;83;21595;-88
2022/12/19 07:57:33;;;;;;;224.87;76.37;;;;;;;-12.97;89.59;100917.32;4182892;83;21031;-87
2022/12/19 08:03:35;;;;;;;208.33;77.20;;;;;;;-12.77;89.61;100912.35;4180207;83;21413;-87
2022/12/19 08:09:36;;;;;;;206.53;73.50;;;;;;;-12.58;89.75;100911.84;4177628;83;20980;-86
2022/12/19 08:15:38;;;;;;;205.47;72.83;;;;;;;-12.32;90.25;100918.86;4175904;83;21030;-86
2022/12/19 08:21:39;;;;;;;126.17;46.93;;;;;;;-12.05;90.25;100910.28;4176373;83;21645;-86
2022/12/19 08:27:41;;;;;;;137.73;48.53;;;;;;;-11.87;91.11;100903.61;4143633;83;21022;-87
2022/12/19 08:33:43;;;;;;;123.27;43.77;;;;;;;-11.62;91.55;100894.84;4209786;83;21078;-87
2022/12/19 08:39:45;;;;;;;133.90;46.47;;;;;;;-11.17;92.36;100886.57;4207168;83;21515;-89
2022/12/19 08:45:49;;;;;;;127.13;43.93;;;;;;;-11.01;91.71;100871.77;4201906;83;20978;-88
2022/12/19 08:51:56;;;;;;;116.73;41.85;;;;;;;-10.83;92.09;100860.20;4204703;82;21332;-90
2022/12/19 08:58:04;;;;;;;114.37;42.80;;;;;;;-10.53;92.75;100858.17;4202499;83;21166;-88
2022/12/19 09:04:06;;;;;;;126.33;44.40;;;;;;;-10.00;92.87;100848.97;4212628;82;21070;-89
2022/12/19 09:10:08;;;;;;;119.17;47.10;;;;;;;-9.49;93.12;100853.83;4210542;82;21038;-89
2022/12/19 09:16:17;;;;;;;130.40;47.27;;;;;;;-8.67;94.17;100873.19;4206389;83;21074;-89
2022/12/19 09:22:19;;;;;;;131.63;46.67;;;;;;;-8.18;92.79;100860.21;4215727;82;21046;-89
2022/12/19 09:28:21;;;;;;;133.73;49.43;;;;;;;-7.69;92.87;100864.94;4170994;82;21026;-89
2022/12/19 09:34:27;;;;;;;126.73;48.00;;;;;;;-7.42;93.07;100854.45;4164215;82;21032;-87
2022/12/19 09:40:34;;;;;;;130.87;47.37;;;;;;;-7.24;92.55;100837.77;4090754;81;103041;-87
2022/12/19 09:46:50;;;;;;;128.10;48.43;;;;;;;-6.89;92.43;100811.78;4100961;84;21114;-86
2022/12/19 09:52:59;;;;;;;118.03;43.60;;;;;;;-6.69;92.47;100814.29;4133363;84;21059;-88
2022/12/19 09:59:05;;;;;;;112.40;43.07;;;;;;;-6.30;91.76;100803.23;4130647;84;21006;-88
2022/12/19 10:05:15;;;;;;;115.67;43.67;;;;;;;-6.04;92.19;100820.25;4131016;84;21009;-88
2022/12/19 10:11:47;;;;;;;112.80;42.93;;;;;;;-5.65;91.99;100822.91;4134170;84;21021;-88
2022/12/19 10:18:14;;;;;;;115.60;45.23;;;;;;;-5.42;91.12;100804.33;4128430;84;21324;-88
2022/12/19 10:25:01;;;;;;;120.37;46.93;;;;;;;-5.71;91.10;100785.13;4159225;83;203831;-89
2022/12/19 10:31:20;;;;;;;125.13;46.97;;;;;;;-5.92;89.80;100777.12;4200694;83;21063;-89
2022/12/19 10:37:31;;;;;;;118.40;49.00;;;;;;;-5.93;90.32;100757.34;4199878;83;21064;-89
2022/12/19 10:43:42;;;;;;;122.23;46.93;;;;;;;-5.91;90.85;100759.27;4207506;83;21010;-89
2022/12/19 10:49:45;;;;;;;112.50;46.27;;;;;;;-5.79;91.09;100737.42;4192261;82;21042;-90
2022/12/19 10:55:50;;;;;;;114.37;43.40;;;;;;;-5.47;90.54;100746.81;4201935;83;21060;-91
2022/12/19 11:01:51;;;;;;;115.63;44.63;;;;;;;-5.63;89.98;100730.94;4198611;83;21895;-90
2022/12/19 11:08:11;;;;;;;118.87;43.43;;;;;;;-5.72;90.04;100730.98;4200171;83;21579;-89
2022/12/19 11:14:22;;;;;;;124.10;46.40;;;;;;;-5.84;90.29;100711.47;4202612;83;21035;-88
2022/12/19 11:20:24;;;;;;;117.07;44.07;;;;;;;-5.87;90.35;100699.92;4206826;83;21055;-90
2022/12/19 11:26:34;;;;;;;115.20;44.23;;;;;;;-5.91;90.86;100681.94;4204969;83;21015;-90
2022/12/19 11:32:42;;;;;;;116.93;43.97;;;;;;;-5.86;90.74;100667.41;4203362;83;21640;-89
2022/12/19 11:38:54;;;;;;;122.07;44.23;;;;;;;-5.75;91.41;100667.42;4238155;82;21866;-89
2022/12/19 11:45:40;;;;;;;118.47;44.83;;;;;;;-5.77;90.81;100668.16;4222745;81;21065;-89
2022/12/19 11:51:54;;;;;;;;;;;;;;;-5.89;90.46;100650.02;4239551;81;21037;-89
2022/12/19 11:57:57;;;;;;;116.93;46.07;;;;;;;-5.96;90.66;100648.47;4176720;83;20224;-89
2022/12/19 12:04:34;;;;;;;130.90;46.13;;;;;;;-5.91;91.29;100644.61;4201878;83;21001;-89
2022/12/19 12:10:41;;;;;;;;;;;;;;;-5.98;91.23;100623.36;4201182;83;21577;-89
2022/12/19 12:17:00;;;;;;;113.87;42.03;;;;;;;-5.98;90.78;100631.91;4204586;83;20123;-89
2022/12/19 12:23:59;;;;;;;115.17;45.17;;;;;;;-5.97;91.21;100619.68;4202445;83;21010;-89
2022/12/19 12:30:15;;;;;;;129.93;46.43;;;;;;;-6.07;91.18;100612.74;4195306;83;21555;-88
2022/12/19 12:36:22;;;;;;;108.05;41.65;;;;;;;-6.11;91.56;100607.59;4245765;81;21480;-90
2022/12/19 12:42:44;;;;;;;111.27;43.67;;;;;;;-6.03;91.85;100610.44;4255763;81;21064;-89
2022/12/19 12:49:06;;;;;;;109.30;42.50;;;;;;;-5.94;92.03;100603.22;4239606;82;21025;-89
2022/12/19 12:55:28;;;;;;;116.80;44.97;;;;;;;-5.85;91.76;100591.68;4248746;81;21027;-89
2022/12/19 13:01:37;;;;;;;115.83;44.97;;;;;;;-5.96;91.80;100583.14;4240682;81;22066;-90
2022/12/19 13:07:51;;;;;;;114.83;47.83;;;;;;;-6.01;91.92;100564.38;4195517;83;21005;-89
2022/12/19 13:13:57;;;;;;;128.70;50.93;;;;;;;-6.20;91.62;100569.48;4161502;84;21005;-89
2022/12/19 13:20:13;;;;;;;128.43;49.27;;;;;;;-6.19;92.19;100567.11;4151749;83;21035;-89
2022/12/19 13:26:23;;;;;;;130.60;48.53;;;;;;;-6.18;92.15;100572.20;4193972;81;21078;-89
2022/12/19 13:32:35;;;;;;;132.27;50.70;;;;;;;-6.24;91.92;100576.30;4185864;83;21056;-89
2022/12/19 13:38:47;;;;;;;132.77;48.90;;;;;;;-6.14;92.54;100564.58;4195616;83;21108;-90
2022/12/19 13:44:53;;;;;;;131.83;49.27;;;;;;;-6.26;91.90;100552.54;4181707;83;21893;-89
2022/12/19 13:51:00;;;;;;;132.07;51.15;;;;;;;-6.25;92.56;100545.37;4248383;82;21071;-88
2022/12/19 13:57:02;;;;;;;137.03;51.73;;;;;;;-6.25;91.86;100541.37;4245915;81;21025;-89
2022/12/19 14:03:13;;;;;;;132.93;52.53;;;;;;;-6.37;92.17;100529.88;4241982;82;22391;-89
2022/12/19 14:09:45;;;;;;;145.20;52.83;;;;;;;-6.56;91.64;100515.78;4192835;83;21033;-89
2022/12/19 14:15:50;;;;;;;132.23;50.13;;;;;;;-6.64;91.52;100500.94;4237163;82;21095;-89
2022/12/19 14:21:55;;;;;;;140.53;52.00;;;;;;;-6.67;91.90;100505.94;4252544;81;20989;-90
2022/12/19 14:28:05;;;;;;;133.80;53.78;;;;;;;-6.65;91.87;100505.17;4230874;81;21016;-89
2022/12/19 14:34:15;;;;;;;145.20;53.23;;;;;;;-6.74;91.72;100508.69;4227628;83;21009;-89
2022/12/19 14:40:24;;;;;;;138.17;52.70;;;;;;;-6.68;91.80;100495.79;4227561;81;21466;-89
2022/12/19 14:46:29;;;;;;;139.67;53.00;;;;;;;-6.78;91.55;100489.39;4230104;82;21001;-89
2022/12/19 14:52:44;;;;;;;128.13;52.17;;;;;;;-6.97;91.26;100497.13;4230632;82;21020;-89
2022/12/19 14:58:56;;;;;;;144.32;57.20;;;;;;;-7.22;90.61;100481.26;4228702;81;22226;-89
2022/12/19 15:05:12;;;;;;;139.43;56.43;;;;;;;-7.49;91.00;100475.98;4220322;83;21084;-88
2022/12/19 15:17:54;;;;;;;140.37;51.27;;;;;;;-7.87;90.37;100451.44;4217362;83;21085;-89
2022/12/19 15:23:56;;;;;;;139.83;52.77;;;;;;;-7.95;90.49;100450.39;4217144;83;21046;-89
2022/12/19 15:29:58;;;;;;;159.33;65.33;;;;;;;-8.11;90.86;100454.94;4226137;83;20971;-89
2022/12/19 15:35:59;;;;;;;162.77;64.00;;;;;;;-8.26;91.14;100446.55;4215305;83;21002;-89
2022/12/19 15:42:01;;;;;;;161.30;62.27;;;;;;;-8.46;90.49;100437.94;4211319;83;20988;-88
2022/12/19 15:48:03;;;;;;;137.17;56.60;;;;;;;-8.68;90.20;100434.85;4216251;82;21950;-88
2022/12/19 15:54:04;;;;;;;152.40;59.80;;;;;;;-8.85;90.38;100430.28;4140504;84;21083;-89
2022/12/19 16:00:21;;;;;;;148.40;57.50;;;;;;;-8.91;90.65;100423.97;4211996;83;21386;-88
2022/12/19 16:06:23;;;;;;;174.13;68.20;;;;;;;-9.16;89.50;100419.13;4216495;83;21017;-88
2022/12/19 16:12:30;;;;;;;185.50;71.00;;;;;;;-9.34;90.07;100414.25;4137618;84;21052;-88
2022/12/19 16:18:32;;;;;;;191.17;75.10;;;;;;;-9.43;90.38;100403.09;4208317;83;21059;-89
2022/12/19 16:24:34;;;;;;;209.00;76.83;;;;;;;-9.49;90.70;100396.48;4204627;83;21907;-88
2022/12/19 16:30:35;;;;;;;204.53;78.17;;;;;;;-9.45;90.84;100391.05;4204624;83;21959;-89
2022/12/19 16:36:36;;;;;;;191.63;79.10;;;;;;;-9.47;90.59;100391.27;4200475;83;21014;-88
2022/12/19 16:42:38;;;;;;;227.37;88.23;;;;;;;-9.53;90.77;100383.34;4202498;83;21850;-88
2022/12/19 16:48:39;;;;;;;200.03;75.50;;;;;;;-9.47;91.16;100376.69;4227101;81;21491;-89
2022/12/19 16:54:41;;;;;;;196.57;80.40;;;;;;;-9.56;90.27;100367.36;4235282;83;21056;-88
2022/12/19 17:00:43;;;;;;;197.23;77.93;;;;;;;-9.62;90.60;100366.06;4225252;81;21559;-88
2022/12/19 17:06:45;;;;;;;193.60;77.17;;;;;;;-9.68;89.78;100364.27;4225893;82;20997;-88
2022/12/19 17:12:47;;;;;;;198.30;78.20;;;;;;;-9.77;89.76;100356.55;4215600;83;21044;-89
2022/12/19 17:18:52;;;;;;;218.07;85.33;;;;;;;-9.66;90.13;100360.89;4223272;81;21548;-89
2022/12/19 17:24:53;;;;;;;216.17;83.63;;;;;;;-9.49;90.63;100364.67;4229345;83;21031;-88
2022/12/19 17:30:58;;;;;;;202.87;78.13;;;;;;;-9.58;89.86;100354.03;4221578;81;21052;-88
2022/12/19 17:37:02;;;;;;;208.10;82.92;;;;;;;-9.75;89.32;100355.02;4193360;83;21072;-89
2022/12/19 17:43:04;;;;;;;235.37;90.47;;;;;;;-9.75;89.71;100356.88;4194639;83;21053;-89
2022/12/19 17:49:05;;;;;;;246.07;92.43;;;;;;;-9.66;90.10;100350.30;4222190;83;21005;-88
2022/12/19 17:55:24;;;;;;;236.50;93.87;;;;;;;-9.58;90.69;100346.08;4226196;83;21643;-87
2022/12/19 18:01:28;;;;;;;256.33;94.40;;;;;;;-9.66;89.64;100333.86;4189492;83;21001;-88
2022/12/19 18:07:31;;;;;;;273.53;98.47;;;;;;;-9.74;90.12;100335.46;4221790;83;21029;-89
2022/12/19 18:13:32;;;;;;;244.90;94.33;;;;;;;-9.66;90.20;100343.67;4223466;83;21013;-88
2022/12/19 18:19:34;;;;;;;262.23;96.13;;;;;;;-9.75;89.53;100338.33;4223641;83;21003;-87
2022/12/19 18:25:35;;;;;;;236.47;92.50;;;;;;;-10.04;88.78;100322.45;4223348;83;21001;-88
2022/12/19 18:31:39;;;;;;;282.83;102.43;;;;;;;-10.18;89.11;100312.42;4210164;83;21110;-88
2022/12/19 18:37:40;;;;;;;267.37;96.13;;;;;;;-10.11;90.13;100304.46;4205387;83;21060;-88
2022/12/19 18:43:42;;;;;;;252.00;93.50;;;;;;;-9.93;89.91;100302.71;4208228;83;21008;-87
2022/12/19 18:49:44;;;;;;;289.67;113.63;;;;;;;-9.90;89.83;100306.26;4152228;83;21028;-86
2022/12/19 18:55:45;;;;;;;378.07;133.27;;;;;;;-9.72;90.39;100295.50;4195259;83;21060;-87
2022/12/19 19:01:47;;;;;;;304.93;118.13;;;;;;;-9.69;90.48;100287.12;4209462;83;21002;-87
2022/12/19 19:07:48;;;;;;;279.07;103.07;;;;;;;-9.70;90.32;100275.70;4209317;83;21045;-88
2022/12/19 19:13:51;;;;;;;262.63;102.50;;;;;;;-9.80;89.64;100266.06;4211415;82;20990;-87
2022/12/19 19:19:52;;;;;;;306.10;112.27;;;;;;;-9.80;90.23;100256.28;4204552;83;21049;-88
2022/12/19 19:25:54;;;;;;;295.80;111.67;;;;;;;-9.50;90.97;100243.73;4197794;83;21010;-88
2022/12/19 19:31:56;;;;;;;302.87;113.97;;;;;;;-9.33;91.51;100248.30;4129456;82;9999579;-89
2022/12/19 19:38:00;;;;;;;300.23;117.23;;;;;;;-9.10;91.59;100239.25;4256622;82;21067;-87
2022/12/19 19:44:02;;;;;;;338.52;129.82;;;;;;;-9.01;91.81;100237.94;4254160;82;21491;-87
2022/12/19 19:50:05;;;;;;;325.30;126.23;;;;;;;-8.83;92.27;100245.91;4254672;82;21005;-87
2022/12/19 19:56:07;;;;;;;331.73;122.20;;;;;;;-8.68;92.19;100238.41;4256775;82;21546;-86
2022/12/19 20:02:09;;;;;;;322.13;125.33;;;;;;;-8.63;92.09;100237.75;4146629;84;21019;-87
2022/12/19 20:08:12;;;;;;;320.70;126.73;;;;;;;-8.69;92.25;100239.42;4232758;82;22035;-88
2022/12/19 20:14:13;;;;;;;287.93;116.03;;;;;;;-8.58;92.94;100236.58;4183474;84;21517;-88
2022/12/19 20:20:15;;;;;;;272.70;108.23;;;;;;;-8.27;93.79;100229.23;4228938;83;21021;-86
2022/12/19 20:26:17;;;;;;;251.53;100.03;;;;;;;-8.18;93.42;100226.55;4247676;82;21680;-87
2022/12/19 20:32:18;;;;;;;280.20;110.13;;;;;;;-8.28;92.56;100224.96;4216451;82;21610;-88
2022/12/19 20:38:19;;;;;;;274.57;107.27;;;;;;;-8.18;93.69;100226.55;4166263;82;21026;-87
2022/12/19 20:44:21;;;;;;;261.30;103.57;;;;;;;-8.28;93.11;100217.50;4211552;83;21545;-87
2022/12/19 20:50:23;;;;;;;269.87;104.13;;;;;;;-8.07;94.47;100216.18;4175228;84;21031;-87
2022/12/19 20:56:24;;;;;;;236.60;97.93;;;;;;;-7.98;94.16;100201.53;4169351;84;21011;-87
2022/12/19 21:02:27;;;;;;;280.90;104.10;;;;;;;-7.85;94.52;100196.05;4175998;82;21126;-87
2022/12/19 21:08:29;;;;;;;290.20;112.33;;;;;;;-7.72;94.94;100198.52;4211057;83;21540;-87
2022/12/19 21:14:30;;;;;;;324.13;122.57;;;;;;;-7.67;94.50;100189.34;4212734;83;21010;-86
2022/12/19 21:20:37;;;;;;;334.73;132.10;;;;;;;-7.51;95.10;100197.45;4213729;83;21904;-86
2022/12/19 21:26:39;;;;;;;375.30;143.37;;;;;;;-7.49;94.85;100190.57;4210510;83;21029;-87
2022/12/19 21:32:40;;;;;;;366.07;144.13;;;;;;;-7.30;95.59;100177.47;4217012;83;21443;-87
2022/12/19 21:38:41;;;;;;;490.97;190.40;;;;;;;-7.24;95.11;100171.22;4212275;83;21924;-87
2022/12/19 21:44:43;;;;;;;459.23;177.43;;;;;;;-7.14;95.41;100175.45;4212940;83;21971;-87
2022/12/19 21:50:44;;;;;;;448.40;178.97;;;;;;;-7.08;94.95;100153.23;4210492;83;21040;-86
2022/12/19 21:56:46;;;;;;;420.53;163.77;;;;;;;-6.97;95.39;100154.53;4211811;83;21604;-86
2022/12/19 22:02:49;;;;;;;419.77;166.57;;;;;;;-6.88;95.21;100144.34;4213358;83;21569;-87
2022/12/19 22:08:50;;;;;;;398.33;162.53;;;;;;;-6.89;94.95;100132.09;4210651;83;21019;-87
2022/12/19 22:14:52;;;;;;;397.57;165.23;;;;;;;-6.83;96.01;100117.30;4217841;82;21025;-87
2022/12/19 22:20:58;;;;;;;436.40;170.83;;;;;;;-6.73;96.01;100124.69;4213306;82;21021;-86
2022/12/19 22:26:59;;;;;;;422.70;167.83;;;;;;;-6.68;95.73;100117.63;4208174;83;21107;-87
2022/12/19 22:33:03;;;;;;;437.57;173.87;;;;;;;-6.55;96.43;100111.21;4212116;83;21006;-88
2022/12/19 22:39:09;;;;;;;409.37;167.47;;;;;;;-6.51;96.09;100115.00;4208054;83;21589;-87
2022/12/19 22:45:11;;;;;;;403.97;167.03;;;;;;;-6.41;96.39;100097.08;4205140;83;21077;-87
2022/12/19 22:51:17;;;;;;;403.30;170.20;;;;;;;-6.45;96.55;100092.73;4204758;83;21089;-87
2022/12/19 22:57:19;;;;;;;389.20;157.33;;;;;;;-6.30;96.74;100081.56;4183636;83;21092;-86
2022/12/19 23:03:21;;;;;;;363.13;146.10;;;;;;;-6.29;96.26;100083.98;4207056;83;21502;-86
2022/12/19 23:09:22;;;;;;;348.07;142.13;;;;;;;-6.36;96.49;100087.34;4208993;83;20981;-88
2022/12/19 23:15:24;;;;;;;354.67;143.17;;;;;;;-6.22;96.89;100089.98;4207895;83;20993;-87
2022/12/19 23:21:26;;;;;;;330.50;138.53;;;;;;;-6.27;97.25;100083.23;4218226;81;21037;-87
2022/12/19 23:27:28;;;;;;;348.03;138.83;;;;;;;-6.17;97.14;100078.06;4203861;83;21474;-86
2022/12/19 23:33:32;;;;;;;355.07;141.60;;;;;;;-6.14;97.10;100069.61;4206308;83;21073;-86
2022/12/19 23:39:33;;;;;;;347.73;143.77;;;;;;;-5.95;97.67;100058.19;4207437;83;21052;-87
2022/12/19 23:45:37;;;;;;;349.17;142.77;;;;;;;-5.92;97.07;100056.37;4214873;83;21102;-86
2022/12/19 23:51:38;;;;;;;336.10;128.93;;;;;;;-5.83;97.98;100053.06;4207703;83;21096;-86
2022/12/19 23:57:40;;;;;;;350.97;142.33;;;;;;;-5.73;97.66;100049.70;4208337;83;21505;-86
